Time;durP1;ratioP1;P1;durP2;ratioP2;P2;SDS_P1;SDS_P2;PMS_P1;PMS_P2;Temp;Humidity;BMP_temperature;BMP_pressure;BME280_temperature;BME280_humidity;BME280_pressure;Samples;Min_cycle;Max_cycle;Signal;HPM_P1;HPM_P2
2021/04/06 00:00:06;;;;;;;11.70;2.70;;;0.70;82.20;;;;;;5069009;28;20037;-63
2021/04/06 00:02:32;;;;;;;11.93;2.70;;;0.70;81.60;;;;;;5070670;28;20070;-63
2021/04/06 00:05:02;;;;;;;16.33;2.87;;;0.70;81.50;;;;;;5061468;28;20036;-63
2021/04/06 00:07:30;;;;;;;10.87;2.83;;;0.70;81.50;;;;;;5030603;28;20044;-63
2021/04/06 00:10:02;;;;;;;10.17;2.47;;;0.60;82.20;;;;;;5053585;28;20401;-63
2021/04/06 00:12:28;;;;;;;11.57;2.50;;;0.60;81.90;;;;;;5053789;28;20467;-63
2021/04/06 00:14:57;;;;;;;12.03;2.80;;;0.60;81.80;;;;;;5034174;28;20037;-63
2021/04/06 00:17:24;;;;;;;10.67;2.53;;;0.60;81.70;;;;;;5047114;28;20037;-63
2021/04/06 00:19:53;;;;;;;11.07;2.27;;;0.60;81.90;;;;;;5035123;28;20052;-63
2021/04/06 00:22:21;;;;;;;12.23;2.47;;;0.60;82.10;;;;;;5053446;28;20040;-64
2021/04/06 00:24:50;;;;;;;8.47;2.37;;;0.60;82.30;;;;;;5035658;28;20481;-64
2021/04/06 00:27:22;;;;;;;12.77;2.20;;;0.60;82.50;;;;;;5032304;28;20049;-63
2021/04/06 00:29:57;;;;;;;8.43;2.17;;;0.60;82.30;;;;;;5033314;28;20037;-63
2021/04/06 00:32:26;;;;;;;7.93;1.83;;;0.60;82.30;;;;;;5053226;28;20039;-64
2021/04/06 00:34:57;;;;;;;9.53;2.30;;;0.60;82.30;;;;;;5035667;28;20037;-63
2021/04/06 00:37:23;;;;;;;11.50;1.85;;;0.60;82.50;;;;;;5035213;28;20041;-63
2021/04/06 00:40:07;;;;;;;11.57;2.20;;;0.50;83.10;;;;;;5035489;28;20045;-63
2021/04/06 00:42:34;;;;;;;8.20;2.00;;;0.50;82.60;;;;;;5052995;28;20071;-63
2021/04/06 00:45:08;;;;;;;11.03;1.97;;;0.50;82.70;;;;;;5035385;28;20405;-63
2021/04/06 00:47:35;;;;;;;7.33;1.73;;;0.50;82.80;;;;;;5034832;28;20037;-63
2021/04/06 00:50:15;;;;;;;12.07;2.10;;;0.50;82.90;;;;;;5053095;28;20405;-63
2021/04/06 00:52:47;;;;;;;7.40;1.50;;;0.50;83.00;;;;;;5036014;28;20044;-63
2021/04/06 00:55:17;;;;;;;9.97;1.70;;;0.50;83.10;;;;;;5053096;28;20041;-64
2021/04/06 00:57:44;;;;;;;12.00;2.15;;;0.40;83.00;;;;;;5052662;28;20125;-63
2021/04/06 01:00:19;;;;;;;7.90;1.50;;;0.40;83.20;;;;;;5052904;28;20040;-63
2021/04/06 01:03:05;;;;;;;7.97;1.40;;;0.40;83.20;;;;;;5034619;28;20048;-67
2021/04/06 01:05:55;;;;;;;11.50;2.00;;;0.40;83.20;;;;;;5035099;28;20051;-63
2021/04/06 01:08:25;;;;;;;9.23;1.60;;;0.40;83.00;;;;;;5052003;28;20055;-63
2021/04/06 01:10:51;;;;;;;10.70;1.73;;;0.40;83.10;;;;;;5052322;28;20516;-63
2021/04/06 01:13:18;;;;;;;7.93;1.60;;;0.40;83.50;;;;;;5034423;28;20512;-64
2021/04/06 01:15:44;;;;;;;7.83;1.50;;;0.40;83.50;;;;;;5052871;28;20044;-63
2021/04/06 01:18:10;;;;;;;10.67;1.80;;;0.40;83.50;;;;;;5033659;28;20036;-63
2021/04/06 01:20:36;;;;;;;10.27;1.63;;;0.40;83.70;;;;;;5047952;28;20417;-64
2021/04/06 01:23:09;;;;;;;8.53;1.77;;;0.40;83.80;;;;;;5052446;28;20040;-63
2021/04/06 01:25:41;;;;;;;7.77;1.80;;;0.40;84.00;;;;;;5051943;28;20045;-63
2021/04/06 01:28:09;;;;;;;8.27;1.67;;;0.40;83.90;;;;;;5052359;28;20123;-63
2021/04/06 01:30:51;;;;;;;6.27;1.60;;;0.40;83.90;;;;;;5052174;28;20556;-64
2021/04/06 01:33:43;;;;;;;14.10;2.10;;;0.40;84.10;;;;;;5034357;28;20562;-63
2021/04/06 01:36:09;;;;;;;8.90;1.73;;;0.40;84.30;;;;;;5048812;28;20090;-63
2021/04/06 01:38:38;;;;;;;8.50;1.70;;;0.40;84.20;;;;;;5052383;28;20037;-63
2021/04/06 01:41:05;;;;;;;5.70;1.43;;;0.40;84.40;;;;;;5051048;28;20489;-63
2021/04/06 01:43:32;;;;;;;9.73;2.40;;;0.40;84.30;;;;;;5052190;28;20037;-63
2021/04/06 01:46:20;;;;;;;13.40;2.00;;;0.40;84.50;;;;;;5034376;28;20029;-63
2021/04/06 01:48:47;;;;;;;7.10;1.57;;;0.40;85.10;;;;;;5035796;28;20044;-63
2021/04/06 01:51:14;;;;;;;8.73;1.80;;;0.40;84.70;;;;;;5051896;28;20405;-63
2021/04/06 01:53:41;;;;;;;9.90;1.67;;;0.40;84.70;;;;;;5034003;28;20043;-63
2021/04/06 01:56:10;;;;;;;7.83;2.00;;;0.40;84.80;;;;;;5037762;28;20037;-63
2021/04/06 01:58:40;;;;;;;8.47;1.80;;;0.40;84.70;;;;;;5034447;28;20133;-63
2021/04/06 02:01:22;;;;;;;9.87;2.10;;;0.30;84.90;;;;;;5051595;28;20116;-63
2021/04/06 02:03:56;;;;;;;7.73;1.40;;;0.30;85.30;;;;;;5051564;28;20481;-63
2021/04/06 02:06:26;;;;;;;8.33;1.60;;;0.40;85.90;;;;;;5051677;28;20040;-63
2021/04/06 02:08:54;;;;;;;8.32;1.70;;;0.50;85.90;;;;;;5051498;28;20140;-63
2021/04/06 02:11:32;;;;;;;6.33;1.50;;;0.50;85.60;;;;;;5051274;28;20098;-63
2021/04/06 02:14:13;;;;;;;8.07;1.70;;;0.50;85.50;;;;;;5033589;28;20378;-63
2021/04/06 02:16:56;;;;;;;8.17;1.60;;;0.60;85.60;;;;;;5051772;28;20037;-63
2021/04/06 02:19:37;;;;;;;8.20;1.63;;;0.60;85.90;;;;;;5033589;28;20052;-63
2021/04/06 02:22:04;;;;;;;10.63;2.10;;;0.60;85.80;;;;;;5043999;28;20044;-64
2021/04/06 02:24:53;;;;;;;14.33;1.90;;;0.70;85.90;;;;;;5050135;28;20033;-63
2021/04/06 02:27:25;;;;;;;7.37;1.47;;;0.70;86.10;;;;;;5031666;28;20552;-64
2021/04/06 02:29:57;;;;;;;7.90;1.87;;;0.70;85.90;;;;;;5051358;28;20090;-63
2021/04/06 02:32:29;;;;;;;12.20;1.70;;;0.70;86.20;;;;;;5050869;28;20052;-63
2021/04/06 02:34:57;;;;;;;6.83;1.80;;;0.80;86.60;;;;;;5051547;28;20040;-63
2021/04/06 02:37:31;;;;;;;8.90;1.70;;;0.80;86.50;;;;;;5032967;28;20045;-63
2021/04/06 02:39:59;;;;;;;7.77;1.60;;;0.90;86.90;;;;;;5051277;28;20107;-64
2021/04/06 02:42:39;;;;;;;6.67;1.77;;;1.00;87.10;;;;;;5050877;28;20037;-63
2021/04/06 02:45:20;;;;;;;6.00;1.73;;;1.10;87.20;;;;;;5029850;28;20042;-63
2021/04/06 02:48:05;;;;;;;5.50;1.43;;;1.20;87.10;;;;;;5031271;28;20124;-64
2021/04/06 02:50:33;;;;;;;8.23;1.80;;;1.30;86.60;;;;;;5013566;28;20401;-63
2021/04/06 02:53:00;;;;;;;9.03;2.00;;;1.30;86.50;;;;;;5030477;28;20041;-63
2021/04/06 02:55:26;;;;;;;6.00;1.70;;;1.40;86.50;;;;;;5013691;28;20037;-63
2021/04/06 02:57:55;;;;;;;7.27;1.90;;;1.40;86.40;;;;;;5013193;28;20116;-66
2021/04/06 03:00:27;;;;;;;10.83;2.43;;;1.40;86.40;;;;;;5013153;28;20053;-63
2021/04/06 03:03:00;;;;;;;8.20;1.97;;;1.40;86.50;;;;;;5031205;28;20398;-63
2021/04/06 03:05:39;;;;;;;10.67;2.20;;;1.40;86.30;;;;;;5030534;28;20036;-63
2021/04/06 03:08:06;;;;;;;8.23;1.90;;;1.40;86.20;;;;;;5030519;28;20067;-63
2021/04/06 03:10:33;;;;;;;7.03;1.90;;;1.30;86.10;;;;;;5013047;28;20041;-63
2021/04/06 03:13:28;;;;;;;9.93;2.43;;;1.30;86.20;;;;;;5030542;28;20124;-63
2021/04/06 03:15:56;;;;;;;9.80;2.63;;;1.20;86.30;;;;;;4996477;28;20030;-63
2021/04/06 03:18:38;;;;;;;8.97;2.33;;;1.20;86.30;;;;;;5030905;28;20036;-63
2021/04/06 03:21:07;;;;;;;10.03;2.70;;;1.10;86.80;;;;;;5002907;28;20037;-63
2021/04/06 03:23:34;;;;;;;8.60;2.60;;;1.10;87.50;;;;;;5023470;28;20037;-63
2021/04/06 03:26:02;;;;;;;11.20;2.60;;;1.20;87.80;;;;;;5032145;28;20524;-63
2021/04/06 03:28:33;;;;;;;11.63;2.60;;;1.30;87.80;;;;;;5050228;28;20128;-63
2021/04/06 03:31:13;;;;;;;11.00;2.50;;;1.30;87.60;;;;;;5047795;28;20127;-63
2021/04/06 03:33:41;;;;;;;11.80;2.65;;;1.40;87.70;;;;;;5044743;28;20037;-64
2021/04/06 03:36:08;;;;;;;10.60;2.77;;;1.40;87.70;;;;;;5042854;28;20119;-63
2021/04/06 03:38:35;;;;;;;11.20;3.00;;;1.40;87.50;;;;;;5054189;28;20094;-63
2021/04/06 03:41:01;;;;;;;11.13;3.00;;;1.40;87.50;;;;;;5018885;28;20040;-63
2021/04/06 03:43:27;;;;;;;12.13;3.50;;;1.40;87.50;;;;;;5044937;28;20029;-63
2021/04/06 03:46:04;;;;;;;9.67;3.40;;;1.40;87.40;;;;;;5052313;28;20037;-63
2021/04/06 03:48:35;;;;;;;12.90;3.30;;;1.30;87.60;;;;;;5030774;28;20064;-63
2021/04/06 03:51:02;;;;;;;14.03;3.23;;;1.30;87.90;;;;;;5050195;28;20040;-63
2021/04/06 03:53:41;;;;;;;14.37;3.60;;;1.30;87.70;;;;;;5029431;28;20037;-63
2021/04/06 03:56:11;;;;;;;11.37;3.40;;;1.30;87.80;;;;;;5050264;28;20075;-63
2021/04/06 04:01:05;;;;;;;12.67;3.70;;;1.20;87.40;;;;;;5052872;28;20033;-64
2021/04/06 04:03:31;;;;;;;12.57;4.40;;;1.20;87.40;;;;;;5051102;28;20037;-63
2021/04/06 04:05:56;;;;;;;15.00;4.20;;;1.20;87.40;;;;;;5052420;28;20040;-63
2021/04/06 04:08:22;;;;;;;11.13;3.93;;;1.10;87.40;;;;;;5034003;28;20047;-63
2021/04/06 04:10:47;;;;;;;12.57;4.87;;;1.00;87.50;;;;;;5051163;28;20118;-63
2021/04/06 04:13:13;;;;;;;18.30;4.33;;;1.00;87.70;;;;;;5034219;28;20579;-63
2021/04/06 04:15:39;;;;;;;18.13;4.87;;;1.00;88.00;;;;;;5052193;28;20248;-64
2021/04/06 04:18:05;;;;;;;19.27;4.50;;;1.00;88.40;;;;;;5033615;28;20309;-63
2021/04/06 04:20:30;;;;;;;12.93;4.13;;;1.10;89.20;;;;;;5051768;28;20037;-63
2021/04/06 04:22:56;;;;;;;14.37;4.37;;;1.20;89.50;;;;;;5034300;28;20489;-64
2021/04/06 04:25:22;;;;;;;14.00;4.50;;;1.30;89.30;;;;;;5055840;28;20037;-64
2021/04/06 04:27:48;;;;;;;11.73;3.57;;;1.30;89.30;;;;;;5037341;28;20542;-63
2021/04/06 04:30:16;;;;;;;12.50;3.60;;;1.40;89.20;;;;;;5035526;28;20140;-63
2021/04/06 04:32:42;;;;;;;14.80;4.10;;;1.50;88.70;;;;;;5035711;28;20099;-63
2021/04/06 04:35:09;;;;;;;14.13;3.87;;;1.50;88.30;;;;;;5019441;28;20041;-63
2021/04/06 04:37:35;;;;;;;11.33;3.33;;;1.50;88.20;;;;;;5018950;28;20156;-63
2021/04/06 04:40:01;;;;;;;13.73;4.30;;;1.50;87.90;;;;;;5052952;28;20041;-63
2021/04/06 04:42:27;;;;;;;19.47;4.10;;;1.40;88.10;;;;;;5034390;28;20082;-63
2021/04/06 04:44:52;;;;;;;11.10;3.57;;;1.30;87.40;;;;;;5035713;28;20025;-63
2021/04/06 04:47:18;;;;;;;12.97;3.53;;;1.30;87.70;;;;;;5053054;28;20378;-63
2021/04/06 04:49:44;;;;;;;16.20;4.00;;;1.30;88.20;;;;;;5052409;28;20025;-63
2021/04/06 04:52:09;;;;;;;15.67;3.67;;;1.20;88.20;;;;;;5035384;28;20036;-63
2021/04/06 04:54:35;;;;;;;17.43;4.33;;;1.20;88.00;;;;;;5034940;28;20558;-63
2021/04/06 04:57:01;;;;;;;15.33;3.90;;;1.20;88.20;;;;;;5053138;28;20036;-63
2021/04/06 04:59:26;;;;;;;12.30;3.30;;;1.30;89.20;;;;;;5053184;28;20021;-63
2021/04/06 05:01:52;;;;;;;13.43;3.17;;;1.40;89.80;;;;;;5034756;28;20120;-64
2021/04/06 05:04:18;;;;;;;17.50;3.10;;;1.50;89.40;;;;;;5034703;28;20029;-63
2021/04/06 05:06:43;;;;;;;15.67;2.97;;;1.60;89.20;;;;;;5018603;28;20561;-63
2021/04/06 05:09:09;;;;;;;16.83;3.40;;;1.60;89.30;;;;;;5052509;28;20056;-64
2021/04/06 05:11:36;;;;;;;13.27;3.77;;;1.60;88.90;;;;;;5052584;28;20036;-63
2021/04/06 05:14:02;;;;;;;13.20;3.03;;;1.60;88.50;;;;;;5034591;28;20094;-63
2021/04/06 05:16:29;;;;;;;15.57;3.00;;;1.60;88.70;;;;;;5052750;28;20112;-63
2021/04/06 05:18:55;;;;;;;16.40;3.23;;;1.70;89.50;;;;;;5052673;28;20052;-63
2021/04/06 05:21:20;;;;;;;16.03;2.90;;;1.70;89.90;;;;;;5017609;28;20064;-63
2021/04/06 05:23:46;;;;;;;17.87;2.97;;;1.80;89.70;;;;;;5052640;28;20041;-63
2021/04/06 05:26:12;;;;;;;12.87;2.60;;;1.90;89.20;;;;;;5052083;28;20041;-64
2021/04/06 05:28:38;;;;;;;14.80;3.30;;;1.90;89.10;;;;;;5018238;28;20128;-63
2021/04/06 05:31:03;;;;;;;12.87;2.80;;;2.00;89.80;;;;;;5034425;28;20112;-63
2021/04/06 05:33:29;;;;;;;13.80;2.37;;;2.10;90.00;;;;;;5033681;28;20075;-63
2021/04/06 05:35:55;;;;;;;12.13;2.57;;;2.20;90.00;;;;;;5034518;28;20086;-64
2021/04/06 05:38:20;;;;;;;11.47;2.53;;;2.30;90.20;;;;;;5051949;28;20041;-64
2021/04/06 05:40:46;;;;;;;12.30;2.43;;;2.50;90.20;;;;;;5034008;28;20112;-63
2021/04/06 05:43:15;;;;;;;12.37;2.23;;;2.70;90.30;;;;;;5052443;28;20037;-63
2021/04/06 05:45:45;;;;;;;11.77;2.53;;;2.80;90.20;;;;;;5051850;28;20043;-63
2021/04/06 05:48:15;;;;;;;12.70;2.58;;;2.80;89.80;;;;;;5034346;28;20052;-63
2021/04/06 05:50:49;;;;;;;16.77;2.27;;;2.90;89.70;;;;;;5051307;28;20037;-64
2021/04/06 05:53:15;;;;;;;14.20;2.60;;;3.00;89.70;;;;;;5034555;28;20036;-63
2021/04/06 05:55:41;;;;;;;17.50;2.80;;;3.10;90.00;;;;;;5051798;28;20131;-63
2021/04/06 05:58:07;;;;;;;15.77;2.70;;;3.20;90.30;;;;;;5034369;28;20128;-64
2021/04/06 06:00:33;;;;;;;12.40;2.40;;;3.40;90.20;;;;;;5050777;28;20056;-64
2021/04/06 06:03:00;;;;;;;12.93;2.33;;;3.70;90.40;;;;;;5051400;28;20128;-63
2021/04/06 06:05:26;;;;;;;14.10;3.10;;;3.90;89.90;;;;;;5051865;28;20059;-64
2021/04/06 06:07:52;;;;;;;11.67;2.10;;;4.20;90.00;;;;;;5017195;28;20484;-66
2021/04/06 06:10:28;;;;;;;12.73;2.50;;;4.40;89.00;;;;;;5033694;28;20037;-64
2021/04/06 06:13:12;;;;;;;12.83;2.17;;;4.60;87.80;;;;;;5033350;28;20052;-64
2021/04/06 06:15:38;;;;;;;13.23;1.80;;;4.70;87.50;;;;;;5051564;28;20058;-64
2021/04/06 06:18:05;;;;;;;13.90;2.50;;;5.10;88.90;;;;;;5033491;28;20028;-64
2021/04/06 06:20:31;;;;;;;12.30;2.00;;;5.70;88.80;;;;;;5033644;28;20033;-64
2021/04/06 06:23:20;;;;;;;10.23;2.10;;;6.60;90.40;;;;;;5051633;28;20120;-65
2021/04/06 06:26:13;;;;;;;8.13;1.80;;;7.90;90.10;;;;;;5051288;28;20037;-64
2021/04/06 06:28:38;;;;;;;7.30;1.50;;;9.40;87.60;;;;;;5050991;28;20444;-66
2021/04/06 06:31:04;;;;;;;9.30;1.60;;;9.40;76.70;;;;;;5051036;28;20037;-63
2021/04/06 06:33:35;;;;;;;10.60;1.53;;;8.20;72.00;;;;;;5033708;28;20044;-64
2021/04/06 06:36:12;;;;;;;9.40;1.67;;;6.90;71.80;;;;;;5056142;28;20044;-64
2021/04/06 06:38:41;;;;;;;8.77;1.40;;;5.60;74.20;;;;;;5062021;28;20090;-63
2021/04/06 06:41:21;;;;;;;5.63;1.40;;;4.70;75.40;;;;;;5052487;28;20037;-63
2021/04/06 06:43:52;;;;;;;7.30;1.55;;;4.00;77.60;;;;;;5048775;28;20053;-63
2021/04/06 06:46:17;;;;;;;;;;;3.50;80.30;;;;;;5036282;28;20120;-63
2021/04/06 06:48:52;;;;;;;7.50;1.50;;;3.30;81.20;;;;;;5064254;28;20000;-63
2021/04/06 06:51:19;;;;;;;7.43;1.30;;;3.50;84.70;;;;;;5058968;28;20044;-64
2021/04/06 06:53:44;;;;;;;8.40;1.60;;;4.60;90.80;;;;;;5051832;28;20112;-64
2021/04/06 06:56:11;;;;;;;5.63;1.30;;;6.30;91.60;;;;;;5049109;28;20120;-64
2021/04/06 06:58:40;;;;;;;6.23;1.43;;;8.00;89.50;;;;;;5057278;28;20051;-63
2021/04/06 07:01:07;;;;;;;7.13;1.40;;;8.80;83.90;;;;;;5062682;28;20037;-65
2021/04/06 07:03:33;;;;;;;6.10;1.55;;;9.60;84.90;;;;;;5065839;28;20492;-64
2021/04/06 07:06:19;;;;;;;5.80;1.50;;;10.90;85.40;;;;;;5053979;28;20036;-65
2021/04/06 07:08:47;;;;;;;7.43;1.63;;;12.00;82.60;;;;;;5044927;28;20079;-65
2021/04/06 07:11:16;;;;;;;7.95;1.58;;;11.90;75.70;;;;;;5063505;28;20029;-64
2021/04/06 07:13:44;;;;;;;10.70;1.98;;;11.60;73.50;;;;;;5061558;28;20052;-65
2021/04/06 07:16:17;;;;;;;9.18;1.90;;;11.90;78.30;;;;;;5073631;28;20086;-65
2021/04/06 07:18:43;;;;;;;7.32;1.80;;;12.90;76.50;;;;;;5063965;28;20040;-67
2021/04/06 07:21:11;;;;;;;9.73;2.10;;;13.10;70.10;;;;;;5066945;28;20485;-64
2021/04/06 07:24:06;;;;;;;12.35;2.30;;;12.30;63.10;;;;;;5040988;28;20044;-64
2021/04/06 07:26:32;;;;;;;15.20;2.72;;;10.50;61.80;;;;;;5046567;28;20032;-64
2021/04/06 07:28:59;;;;;;;12.60;2.40;;;9.20;63.80;;;;;;5058819;28;20037;-64
2021/04/06 07:31:25;;;;;;;11.75;2.38;;;8.10;64.00;;;;;;5057278;28;20108;-65
2021/04/06 07:33:52;;;;;;;13.80;2.60;;;7.10;65.10;;;;;;5041340;28;20029;-65
2021/04/06 07:36:24;;;;;;;12.47;2.67;;;6.30;66.10;;;;;;5067336;28;20033;-64
2021/04/06 07:39:01;;;;;;;11.20;2.00;;;5.50;67.60;;;;;;5076850;28;20028;-63
2021/04/06 07:41:30;;;;;;;12.73;2.17;;;4.90;69.20;;;;;;5076791;28;20033;-64
2021/04/06 07:43:58;;;;;;;13.57;2.03;;;4.40;70.40;;;;;;5026677;28;20036;-63
2021/04/06 07:46:33;;;;;;;12.23;2.27;;;4.20;72.10;;;;;;5056940;28;20116;-64
2021/04/06 07:49:00;;;;;;;10.63;2.77;;;4.10;73.20;;;;;;5068179;28;20037;-63
2021/04/06 07:51:28;;;;;;;9.67;2.00;;;4.20;73.90;;;;;;5059177;28;20036;-64
2021/04/06 07:53:57;;;;;;;15.67;2.60;;;4.40;74.30;;;;;;5059026;28;20040;-64
2021/04/06 07:56:46;;;;;;;12.90;2.80;;;5.60;79.80;;;;;;5057799;28;20037;-64
2021/04/06 07:59:18;;;;;;;10.87;1.90;;;6.70;76.00;;;;;;5074941;28;20476;-64
2021/04/06 08:01:49;;;;;;;11.57;1.87;;;6.90;71.30;;;;;;5074833;28;20028;-63
2021/04/06 08:04:15;;;;;;;9.73;1.92;;;6.50;68.90;;;;;;5074790;28;20036;-65
2021/04/06 08:06:49;;;;;;;10.83;1.90;;;6.10;68.90;;;;;;5074984;28;20139;-64
2021/04/06 08:09:43;;;;;;;11.03;1.63;;;5.70;69.80;;;;;;5074856;28;20090;-63
2021/04/06 08:12:13;;;;;;;9.30;1.67;;;5.40;69.50;;;;;;5058565;28;20033;-63
2021/04/06 08:14:45;;;;;;;9.33;1.50;;;5.00;69.10;;;;;;5076940;28;20040;-63
2021/04/06 08:17:26;;;;;;;10.50;1.60;;;4.40;70.80;;;;;;5076934;28;20273;-63
2021/04/06 08:20:04;;;;;;;13.43;1.93;;;4.10;72.80;;;;;;5076696;28;20059;-63
2021/04/06 08:22:33;;;;;;;11.33;2.53;;;4.00;74.40;;;;;;5075702;28;20064;-63
2021/04/06 08:25:21;;;;;;;8.60;1.83;;;3.90;75.20;;;;;;5073025;28;20025;-63
2021/04/06 08:27:47;;;;;;;10.80;1.77;;;3.80;75.30;;;;;;5073258;28;20459;-64
2021/04/06 08:30:15;;;;;;;8.93;1.87;;;3.80;75.30;;;;;;5073625;28;20055;-64
2021/04/06 08:32:56;;;;;;;8.70;1.70;;;3.60;75.80;;;;;;5073559;28;20553;-64
2021/04/06 08:35:54;;;;;;;9.95;2.03;;;3.60;76.90;;;;;;5073503;28;20032;-64
2021/04/06 08:38:23;;;;;;;8.43;1.63;;;3.70;78.00;;;;;;5068956;28;20024;-66
2021/04/06 08:40:54;;;;;;;9.90;1.73;;;3.90;78.30;;;;;;5073243;28;20484;-66
2021/04/06 08:43:41;;;;;;;11.77;1.73;;;4.00;77.90;;;;;;5072965;28;20036;-66
2021/04/06 08:46:25;;;;;;;10.83;1.47;;;4.00;78.50;;;;;;5074009;28;20600;-67
2021/04/06 08:48:53;;;;;;;8.87;1.60;;;6.00;86.80;;;;;;5073100;28;20067;-68
2021/04/06 08:51:33;;;;;;;6.45;1.45;;;10.10;89.00;;;;;;5072927;28;20054;-69
2021/04/06 08:54:01;;;;;;;6.90;1.65;;;13.60;84.00;;;;;;5072825;28;20032;-68
2021/04/06 08:56:31;;;;;;;6.85;1.40;;;16.60;77.50;;;;;;5073162;28;20061;-68
2021/04/06 08:59:19;;;;;;;6.60;1.57;;;18.70;69.60;;;;;;5072665;28;20036;-69
2021/04/06 09:01:48;;;;;;;5.88;1.50;;;20.10;63.50;;;;;;5072938;28;20040;-69
2021/04/06 09:04:17;;;;;;;6.32;1.50;;;21.70;59.20;;;;;;5073383;28;20032;-69
2021/04/06 09:06:44;;;;;;;7.88;1.70;;;22.90;53.00;;;;;;5038599;28;20078;-69
2021/04/06 09:09:10;;;;;;;6.90;1.60;;;22.50;49.30;;;;;;5072592;28;20037;-69
2021/04/06 09:11:38;;;;;;;4.82;1.40;;;22.40;48.10;;;;;;5072588;28;20029;-69
2021/04/06 09:14:05;;;;;;;7.95;1.40;;;22.10;46.30;;;;;;5037845;28;20496;-69
2021/04/06 09:16:33;;;;;;;6.80;1.58;;;21.50;44.90;;;;;;5072677;28;20174;-70
2021/04/06 09:19:13;;;;;;;8.25;1.52;;;22.30;45.60;;;;;;5054780;28;20028;-69
2021/04/06 09:21:55;;;;;;;6.53;1.48;;;21.90;40.70;;;;;;5072107;28;20056;-68
2021/04/06 09:24:23;;;;;;;8.15;1.75;;;19.80;38.70;;;;;;5056547;28;20110;-67
2021/04/06 09:26:51;;;;;;;6.78;1.67;;;16.70;38.40;;;;;;5054196;28;20025;-67
2021/04/06 09:29:24;;;;;;;5.93;1.40;;;13.80;40.60;;;;;;5072625;28;20052;-65
2021/04/06 09:32:06;;;;;;;5.70;1.40;;;11.50;42.90;;;;;;5054282;28;20024;-65
2021/04/06 09:34:35;;;;;;;6.95;1.30;;;9.60;46.40;;;;;;5072587;28;20577;-65
2021/04/06 09:37:15;;;;;;;7.38;1.30;;;8.40;49.70;;;;;;5072014;28;20116;-65
2021/04/06 09:39:47;;;;;;;6.85;1.50;;;7.70;52.00;;;;;;5054300;28;20040;-65
2021/04/06 09:42:14;;;;;;;8.13;1.73;;;7.30;54.10;;;;;;5055100;28;20055;-67
2021/04/06 09:44:42;;;;;;;4.28;1.13;;;8.70;59.60;;;;;;5072403;28;20039;-67
2021/04/06 09:47:11;;;;;;;5.60;1.45;;;12.40;62.40;;;;;;5036928;28;20135;-68
2021/04/06 09:49:39;;;;;;;5.35;1.33;;;16.40;57.60;;;;;;5071918;28;20032;-69
2021/04/06 09:52:18;;;;;;;4.18;1.40;;;20.10;51.40;;;;;;5071275;28;20036;-69
2021/04/06 09:54:57;;;;;;;4.43;1.10;;;22.80;44.70;;;;;;5054305;28;20091;-69
2021/04/06 09:57:25;;;;;;;4.85;1.30;;;24.40;40.70;;;;;;5071414;28;20042;-69
2021/04/06 09:59:56;;;;;;;6.05;1.48;;;25.60;38.20;;;;;;5071598;28;20033;-69
2021/04/06 10:02:25;;;;;;;5.78;1.60;;;25.50;34.80;;;;;;5071235;28;20124;-68
2021/04/06 10:04:52;;;;;;;7.82;1.50;;;24.70;33.10;;;;;;5071650;28;20037;-68
2021/04/06 10:07:19;;;;;;;6.55;1.67;;;21.60;30.90;;;;;;5071149;28;20040;-67
2021/04/06 10:09:51;;;;;;;6.85;1.63;;;17.70;32.10;;;;;;5053970;28;20392;-65
2021/04/06 10:12:20;;;;;;;7.78;1.90;;;14.10;35.50;;;;;;5071164;28;20136;-66
2021/04/06 10:14:47;;;;;;;7.35;1.50;;;11.50;39.30;;;;;;5053728;28;20550;-65
2021/04/06 10:17:15;;;;;;;7.20;1.45;;;10.00;42.60;;;;;;5071630;28;20036;-65
2021/04/06 10:19:59;;;;;;;7.78;1.73;;;9.20;44.80;;;;;;5071191;28;20040;-65
2021/04/06 10:22:26;;;;;;;8.80;1.50;;;8.40;46.90;;;;;;5070939;28;20075;-65
2021/04/06 10:25:00;;;;;;;6.40;1.48;;;8.00;48.10;;;;;;5071627;28;20036;-65
2021/04/06 10:27:36;;;;;;;6.20;1.50;;;8.00;50.20;;;;;;5053682;28;20477;-65
2021/04/06 10:30:07;;;;;;;5.72;1.40;;;8.90;53.00;;;;;;5071085;28;20056;-66
2021/04/06 10:32:47;;;;;;;5.38;1.35;;;11.00;54.00;;;;;;5071526;28;20032;-66
2021/04/06 10:35:20;;;;;;;5.50;1.52;;;14.10;51.40;;;;;;5070991;28;20115;-67
2021/04/06 10:37:58;;;;;;;4.72;1.45;;;16.70;48.60;;;;;;5071127;28;20036;-67
2021/04/06 10:40:39;;;;;;;6.07;1.35;;;17.90;42.90;;;;;;5070851;28;20051;-68
2021/04/06 10:43:12;;;;;;;8.40;1.75;;;18.90;41.20;;;;;;5052812;28;20029;-67
2021/04/06 10:45:50;;;;;;;6.43;1.58;;;20.00;39.60;;;;;;5053377;28;20452;-68
2021/04/06 10:48:21;;;;;;;6.30;1.60;;;20.40;37.10;;;;;;5052365;28;20515;-68
2021/04/06 10:50:54;;;;;;;7.30;1.77;;;20.30;36.30;;;;;;5070715;28;20055;-67
2021/04/06 10:53:25;;;;;;;5.93;1.63;;;19.20;35.00;;;;;;5070534;28;20485;-67
2021/04/06 10:55:55;;;;;;;;;;;18.20;36.90;;;;;;5071484;28;20036;-67
2021/04/06 10:58:25;;;;;;;;;;;17.50;36.90;;;;;;5071275;28;20296;-66
2021/04/06 11:00:55;;;;;;;;;;;16.60;35.90;;;;;;5052995;28;20313;-65
2021/04/06 11:03:21;;;;;;;;;;;14.60;35.50;;;;;;5037024;28;20269;-66
2021/04/06 11:05:46;;;;;;;;;;;12.50;37.40;;;;;;5071100;28;19919;-65
2021/04/06 11:08:23;;;;;;;;;;;10.60;39.90;;;;;;5071262;28;19923;-65
2021/04/06 11:10:49;;;;;;;;;;;9.10;43.00;;;;;;5070883;28;20003;-66
2021/04/06 11:13:15;;;;;;;;;;;8.20;46.80;;;;;;5053630;28;19920;-65
2021/04/06 11:15:41;;;;;;;;;;;8.00;48.20;;;;;;5053766;28;19916;-65
2021/04/06 11:18:07;;;;;;;;;;;7.90;48.80;;;;;;5070892;28;19999;-65
2021/04/06 11:20:33;;;;;;;;;;;7.80;49.50;;;;;;5071474;28;19947;-65
2021/04/06 11:22:58;;;;;;;;;;;7.70;49.90;;;;;;5053118;28;20332;-66
2021/04/06 11:25:24;;;;;;;;;;;7.70;50.80;;;;;;5071319;28;19943;-65
2021/04/06 11:27:51;;;;;;;;;;;7.70;50.00;;;;;;5071145;28;19916;-65
2021/04/06 11:30:17;;;;;;;;;;;7.50;51.00;;;;;;5052852;28;19913;-65
2021/04/06 11:32:43;;;;;;;;;;;7.60;51.30;;;;;;5052935;28;19962;-65
2021/04/06 11:35:08;;;;;;;;;;;8.30;52.90;;;;;;5071334;28;19912;-66
2021/04/06 11:37:34;;;;;;;;;;;9.50;54.00;;;;;;5070604;28;19920;-66
2021/04/06 11:40:00;;;;;;;;;;;11.00;52.40;;;;;;5070993;28;20361;-67
2021/04/06 11:42:25;;;;;;;;;;;12.60;51.20;;;;;;5052615;28;19916;-67
2021/04/06 11:44:52;;;;;;;;;;;14.10;49.70;;;;;;5071192;28;19955;-67
2021/04/06 11:47:18;;;;;;;;;;;15.60;47.60;;;;;;5052827;28;19923;-67
2021/04/06 11:49:44;;;;;;;;;;;16.60;44.50;;;;;;5070081;28;19913;-68
2021/04/06 11:52:09;;;;;;;;;;;17.60;43.90;;;;;;5016913;28;19921;-70
2021/04/06 11:54:35;;;;;;;;;;;18.90;44.80;;;;;;5050024;28;19920;-68
2021/04/06 11:57:02;;;;;;;;;;;19.90;42.20;;;;;;5032148;28;20365;-70
2021/04/06 11:59:29;;;;;;;;;;;19.20;37.40;;;;;;5052893;28;19912;-69
2021/04/06 12:01:55;;;;;;;;;;;17.50;36.30;;;;;;5053764;28;20285;-70
2021/04/06 12:04:21;;;;;;;;;;;16.40;38.60;;;;;;5054397;28;19924;-69
2021/04/06 12:06:47;;;;;;;;;;;15.80;38.50;;;;;;5053770;28;20381;-68
2021/04/06 12:09:12;;;;;;;;;;;14.50;37.90;;;;;;5036576;28;19999;-68
2021/04/06 12:11:39;;;;;;;;;;;13.10;38.90;;;;;;5036315;28;19909;-68
2021/04/06 12:14:04;;;;;;;;;;;11.90;40.00;;;;;;5054083;28;19912;-68
2021/04/06 12:16:30;;;;;;;;;;;10.80;41.50;;;;;;5054091;28;20425;-69
2021/04/06 12:18:56;;;;;;;;;;;10.20;43.10;;;;;;5054475;28;20011;-68
2021/04/06 12:21:21;;;;;;;;;;;10.00;44.80;;;;;;5019678;28;19912;-70
2021/04/06 12:23:47;;;;;;;;;;;10.00;46.10;;;;;;5054330;28;19913;-68
2021/04/06 12:26:13;;;;;;;;;;;10.10;45.90;;;;;;5036009;28;19921;-68
2021/04/06 12:28:39;;;;;;;;;;;10.10;45.30;;;;;;5020223;28;20277;-68
2021/04/06 12:31:05;;;;;;;;;;;10.20;46.20;;;;;;5053972;28;19966;-68
2021/04/06 12:33:32;;;;;;;;;;;10.30;46.10;;;;;;5053797;28;19920;-69
2021/04/06 12:35:58;;;;;;;;;;;10.50;46.30;;;;;;5054166;28;19913;-69
2021/04/06 12:38:23;;;;;;;;;;;10.50;45.30;;;;;;5035666;28;19958;-68
2021/04/06 12:40:49;;;;;;;;;;;10.50;45.30;;;;;;5035996;28;19912;-69
2021/04/06 12:43:15;;;;;;;;;;;10.70;45.90;;;;;;5019709;28;19919;-70
2021/04/06 12:45:40;;;;;;;;;;;11.00;45.90;;;;;;5053693;28;20011;-70
2021/04/06 12:48:06;;;;;;;;;;;11.60;46.50;;;;;;5019411;28;20003;-70
2021/04/06 12:50:32;;;;;;;;;;;12.40;46.30;;;;;;5052706;28;20407;-69
2021/04/06 12:52:57;;;;;;;;;;;13.10;45.30;;;;;;5035439;28;19913;-69
2021/04/06 12:55:23;;;;;;;;;;;13.00;42.30;;;;;;5035475;28;19916;-68
2021/04/06 12:57:49;;;;;;;;;;;12.40;41.40;;;;;;5053054;28;19913;-70
2021/04/06 13:00:15;;;;;;;;;;;11.70;41.60;;;;;;5035372;28;19919;-69
2021/04/06 13:02:41;;;;;;;;;;;11.20;43.50;;;;;;5053641;28;19917;-70
2021/04/06 13:05:07;;;;;;;;;;;11.00;44.90;;;;;;5034680;28;19923;-68
2021/04/06 13:07:33;;;;;;;;;;;11.10;46.30;;;;;;5053292;28;19917;-69
2021/04/06 13:09:59;;;;;;;;;;;11.20;46.10;;;;;;5052146;28;19913;-68
2021/04/06 13:12:24;;;;;;;;;;;11.20;46.10;;;;;;5052944;28;20288;-70
2021/04/06 13:14:50;;;;;;;;;;;11.20;47.00;;;;;;5053399;28;19912;-69
2021/04/06 13:17:16;;;;;;;;;;;11.20;46.60;;;;;;5052939;28;19992;-68
2021/04/06 13:19:42;;;;;;;;;;;10.90;46.50;;;;;;5035478;28;19917;-68
2021/04/06 13:22:08;;;;;;;;;;;10.80;46.80;;;;;;5052030;28;20381;-68